createdAt,value
2018-07-06T00:00:05.063Z,98682.19
2018-07-06T00:02:44.399Z,98683.53
2018-07-06T00:05:23.871Z,98677.73
2018-07-06T00:08:03.541Z,98677.38
2018-07-06T00:10:43.053Z,98680.04
2018-07-06T00:13:23.436Z,98685.38
2018-07-06T00:16:03.074Z,98680.70
2018-07-06T00:18:42.635Z,98683.05
2018-07-06T00:21:22.948Z,98682.72
2018-07-06T00:24:02.716Z,98686.70
2018-07-06T00:26:42.352Z,98687.22
2018-07-06T00:29:22.368Z,98684.85
2018-07-06T00:32:01.854Z,98686.53
2018-07-06T00:34:41.367Z,98685.56
2018-07-06T00:37:21.431Z,98682.89
2018-07-06T00:40:00.939Z,98686.55
2018-07-06T00:42:40.371Z,98687.70
2018-07-06T00:45:19.764Z,98681.87
2018-07-06T00:47:59.337Z,98687.03
2018-07-06T00:50:38.724Z,98686.72
2018-07-06T00:53:18.200Z,98691.55
2018-07-06T00:55:57.908Z,98690.05
2018-07-06T00:58:37.356Z,98692.85
2018-07-06T01:01:16.732Z,98690.86
2018-07-06T01:03:56.132Z,98699.86
2018-07-06T01:06:35.527Z,98695.20
2018-07-06T01:09:16.097Z,98699.02
2018-07-06T01:11:55.422Z,98697.02
2018-07-06T01:14:34.981Z,98699.35
2018-07-06T01:17:16.639Z,98696.52
2018-07-06T01:19:57.051Z,98692.05
2018-07-06T01:22:36.546Z,98691.42
2018-07-06T01:25:16.042Z,98692.70
2018-07-06T01:27:55.807Z,98697.22
2018-07-06T01:30:35.288Z,98700.87
2018-07-06T01:33:14.867Z,98688.41
2018-07-06T01:35:54.465Z,98690.59
2018-07-06T01:38:34.058Z,98694.58
2018-07-06T01:41:13.558Z,98690.44
2018-07-06T01:43:53.034Z,98682.08
2018-07-06T01:46:32.704Z,98681.23
2018-07-06T01:49:12.320Z,98686.05
2018-07-06T01:51:51.838Z,98685.89
2018-07-06T01:54:31.399Z,98684.88
2018-07-06T01:57:10.861Z,98687.52
2018-07-06T01:59:50.497Z,98691.03
2018-07-06T02:02:29.814Z,98689.87
2018-07-06T02:05:09.304Z,98688.90
2018-07-06T02:07:48.824Z,98691.19
2018-07-06T02:10:28.161Z,98683.53
2018-07-06T02:13:08.654Z,98687.22
2018-07-06T02:15:48.191Z,98684.88
2018-07-06T02:18:27.795Z,98689.86
2018-07-06T02:21:06.972Z,98689.56
2018-07-06T02:23:46.374Z,98693.59
2018-07-06T02:26:25.865Z,98694.08
2018-07-06T02:29:05.468Z,98694.92
2018-07-06T02:31:44.849Z,98688.94
2018-07-06T02:34:24.393Z,98691.77
2018-07-06T02:37:03.993Z,98686.95
2018-07-06T02:39:43.686Z,98689.57
2018-07-06T02:42:25.397Z,98691.91
2018-07-06T02:45:04.929Z,98689.25
2018-07-06T02:47:44.481Z,98689.60
2018-07-06T02:50:23.925Z,98692.41
2018-07-06T02:53:03.554Z,98687.96
2018-07-06T02:55:44.247Z,98681.80
2018-07-06T02:58:24.688Z,98688.94
2018-07-06T03:01:04.084Z,98687.27
2018-07-06T03:03:44.384Z,98694.92
2018-07-06T03:06:24.135Z,98692.40
2018-07-06T03:09:04.252Z,98696.20
2018-07-06T03:11:43.837Z,98692.57
2018-07-06T03:14:23.228Z,98691.38
2018-07-06T03:17:02.744Z,98689.57
2018-07-06T03:19:42.280Z,98688.41
2018-07-06T03:22:21.835Z,98687.75
2018-07-06T03:25:01.242Z,98691.59
2018-07-06T03:27:40.829Z,98694.71
2018-07-06T03:30:20.346Z,98698.88
2018-07-06T03:33:00.812Z,98696.56
2018-07-06T03:35:40.326Z,98698.06
2018-07-06T03:38:19.676Z,98707.03
2018-07-06T03:40:59.092Z,98706.22
2018-07-06T03:43:38.690Z,98707.86
2018-07-06T03:46:18.153Z,98705.37
2018-07-06T03:48:57.656Z,98706.85
2018-07-06T03:51:37.585Z,98706.19
2018-07-06T03:54:17.029Z,98715.49
2018-07-06T03:56:56.504Z,98712.17
2018-07-06T03:59:35.980Z,98722.48
2018-07-06T04:02:15.458Z,98723.81
2018-07-06T04:04:55.215Z,98724.97
2018-07-06T04:07:34.645Z,98728.13
2018-07-06T04:10:14.156Z,98734.27
2018-07-06T04:12:53.646Z,98725.77
2018-07-06T04:15:33.112Z,98731.44
2018-07-06T04:18:12.576Z,98723.77
2018-07-06T04:20:52.145Z,98731.44
2018-07-06T04:23:31.718Z,98738.58
2018-07-06T04:26:11.253Z,98730.10
2018-07-06T04:28:50.908Z,98736.09
2018-07-06T04:31:30.227Z,98737.06
2018-07-06T04:34:09.678Z,98737.41
2018-07-06T04:36:49.123Z,98745.03
2018-07-06T04:39:28.516Z,98744.36
2018-07-06T04:42:08.240Z,98749.67
2018-07-06T04:44:47.724Z,98747.51
2018-07-06T04:47:27.461Z,98753.32
2018-07-06T04:50:07.052Z,98755.48
2018-07-06T04:52:46.521Z,98748.47
2018-07-06T04:55:26.055Z,98749.59
2018-07-06T04:58:05.392Z,98744.77
2018-07-06T05:00:44.899Z,98752.44
2018-07-06T05:03:24.465Z,98754.58
2018-07-06T05:06:04.753Z,98758.09
2018-07-06T05:08:44.375Z,98759.05
2018-07-06T05:11:24.039Z,98763.22
2018-07-06T05:14:03.639Z,98764.66
2018-07-06T05:16:43.236Z,98764.17
2018-07-06T05:19:22.639Z,98776.52
2018-07-06T05:22:02.112Z,98779.19
2018-07-06T05:24:41.461Z,98782.53
2018-07-06T05:27:21.036Z,98790.50
2018-07-06T05:30:00.577Z,98785.00
2018-07-06T05:32:40.123Z,98782.88
2018-07-06T05:35:19.644Z,98786.19
2018-07-06T05:37:59.128Z,98794.32
2018-07-06T05:40:38.721Z,98799.64
2018-07-06T05:43:18.387Z,98799.03
2018-07-06T05:45:57.847Z,98812.88
2018-07-06T05:48:37.332Z,98805.91
2018-07-06T05:51:16.921Z,98804.73
2018-07-06T05:53:56.490Z,98808.23
2018-07-06T05:56:35.961Z,98815.55
2018-07-06T05:59:15.536Z,98816.73
2018-07-06T06:01:54.982Z,98813.06
2018-07-06T06:04:34.555Z,98815.72
2018-07-06T06:07:14.140Z,98819.54
2018-07-06T06:09:42.503Z,98821.88
2018-07-06T06:12:11.300Z,98827.37
2018-07-06T06:14:39.432Z,98829.20
2018-07-06T06:17:07.564Z,98836.16
2018-07-06T06:19:35.701Z,98841.17
2018-07-06T06:22:04.070Z,98838.66
2018-07-06T06:24:32.140Z,98843.13
2018-07-06T06:27:00.248Z,98839.98
2018-07-06T06:29:28.351Z,98846.63
2018-07-06T06:31:57.471Z,98851.30
2018-07-06T06:34:25.716Z,98850.10
2018-07-06T06:36:53.946Z,98850.94
2018-07-06T06:39:22.108Z,98849.25
2018-07-06T06:41:50.229Z,98851.06
2018-07-06T06:44:18.434Z,98846.33
2018-07-06T06:46:46.663Z,98849.97
2018-07-06T06:49:14.657Z,98859.95
2018-07-06T06:51:42.881Z,98855.96
2018-07-06T06:54:10.963Z,98856.91
2018-07-06T06:56:39.069Z,98855.04
2018-07-06T06:59:07.435Z,98854.81
2018-07-06T07:01:35.428Z,98859.09
2018-07-06T07:04:03.524Z,98857.70
2018-07-06T07:06:31.732Z,98861.74
2018-07-06T07:08:59.839Z,98862.95
2018-07-06T07:11:27.961Z,98857.47
2018-07-06T07:13:56.170Z,98861.99
2018-07-06T07:16:24.140Z,98857.18
2018-07-06T07:18:52.293Z,98858.80
2018-07-06T07:21:20.496Z,98857.57
2018-07-06T07:23:48.711Z,98861.47
2018-07-06T07:26:16.828Z,98863.27
2018-07-06T07:28:45.708Z,98860.53
2018-07-06T07:31:13.912Z,98860.17
2018-07-06T07:33:42.055Z,98863.81
2018-07-06T07:36:10.296Z,98864.70
2018-07-06T07:38:38.581Z,98867.02
2018-07-06T07:41:06.676Z,98866.69
2018-07-06T07:43:34.800Z,98867.84
2018-07-06T07:46:02.931Z,98866.08
2018-07-06T07:48:31.224Z,98871.22
2018-07-06T07:51:10.492Z,98871.98
2018-07-06T07:53:50.032Z,98874.20
2018-07-06T07:56:18.128Z,98871.45
2018-07-06T07:58:46.216Z,98873.59
2018-07-06T08:01:14.441Z,98871.91
2018-07-06T08:03:42.416Z,98880.05
2018-07-06T08:06:10.549Z,98880.11
2018-07-06T08:08:38.892Z,98885.02
2018-07-06T08:11:07.011Z,98880.47
2018-07-06T08:13:35.356Z,98885.97
2018-07-06T08:16:03.461Z,98887.25
2018-07-06T08:18:31.548Z,98892.83
2018-07-06T08:20:59.644Z,98893.66
2018-07-06T08:23:27.782Z,98897.41
2018-07-06T08:25:55.892Z,98905.25
2018-07-06T08:28:23.996Z,98905.39
2018-07-06T08:30:52.100Z,98906.15
2018-07-06T08:33:21.061Z,98910.43
2018-07-06T08:36:00.506Z,98905.66
2018-07-06T08:38:28.580Z,98903.88
2018-07-06T08:40:56.680Z,98910.36
2018-07-06T08:43:24.768Z,98909.89
2018-07-06T08:45:52.863Z,98919.60
2018-07-06T08:48:20.964Z,98915.28
2018-07-06T08:50:49.037Z,98918.33
2018-07-06T08:53:17.123Z,98919.37
2018-07-06T08:55:45.233Z,98921.29
2018-07-06T08:58:13.308Z,98931.44
2018-07-06T09:00:41.385Z,98928.38
2018-07-06T09:03:09.469Z,98936.92
2018-07-06T09:05:37.551Z,98929.23
2018-07-06T09:08:05.631Z,98921.64
2018-07-06T09:10:34.336Z,98921.81
2018-07-06T09:13:02.459Z,98926.59
2018-07-06T09:15:30.537Z,98925.52
2018-07-06T09:17:58.648Z,98928.23
2018-07-06T09:20:26.743Z,98921.64
2018-07-06T09:22:54.825Z,98927.73
2018-07-06T09:25:23.082Z,98930.98
2018-07-06T09:27:51.350Z,98931.52
2018-07-06T09:30:19.457Z,98925.16
2018-07-06T09:32:47.556Z,98926.19
2018-07-06T09:35:15.646Z,98922.67
2018-07-06T09:37:43.750Z,98922.45
2018-07-06T09:40:12.054Z,98936.39
2018-07-06T09:42:40.322Z,98931.50
2018-07-06T09:45:08.736Z,98925.30
2018-07-06T09:47:36.839Z,98919.17
2018-07-06T09:50:05.425Z,98927.34
2018-07-06T09:52:33.512Z,98926.11
2018-07-06T09:55:01.621Z,98927.63
2018-07-06T09:57:29.723Z,98932.23
2018-07-06T09:59:57.811Z,98926.55
2018-07-06T10:02:25.932Z,98920.48
2018-07-06T10:04:54.026Z,98927.32
2018-07-06T10:07:22.124Z,98931.67
2018-07-06T10:09:50.269Z,98931.70
2018-07-06T10:12:18.311Z,98931.30
2018-07-06T10:14:46.413Z,98928.91
2018-07-06T10:17:14.493Z,98928.97
2018-07-06T10:19:42.613Z,98933.63
2018-07-06T10:22:10.662Z,98928.73
2018-07-06T10:24:38.992Z,98924.80
2018-07-06T10:27:07.093Z,98935.63
2018-07-06T10:29:41.940Z,98931.03
2018-07-06T10:32:18.984Z,98937.06
2018-07-06T10:34:47.152Z,98936.17
2018-07-06T10:37:15.787Z,98935.69
2018-07-06T10:39:43.968Z,98943.88
2018-07-06T10:42:11.992Z,98956.71
2018-07-06T10:44:40.516Z,98945.43
2018-07-06T10:47:08.775Z,98951.04
2018-07-06T10:49:37.114Z,98946.12
2018-07-06T10:52:05.309Z,98944.47
2018-07-06T10:54:33.704Z,98946.76
2018-07-06T10:57:01.843Z,98945.30
2018-07-06T10:59:30.188Z,98944.70
2018-07-06T11:01:58.277Z,98943.08
2018-07-06T11:04:26.368Z,98940.51
2018-07-06T11:06:54.908Z,98941.30
2018-07-06T11:09:23.297Z,98935.77
2018-07-06T11:11:51.569Z,98924.81
2018-07-06T11:14:20.379Z,98934.20
2018-07-06T11:16:48.499Z,98943.77
2018-07-06T11:19:16.795Z,98952.16
2018-07-06T11:21:45.053Z,98943.16
2018-07-06T11:24:13.136Z,98934.56
2018-07-06T11:26:41.219Z,98930.80
2018-07-06T11:29:09.324Z,98930.25
2018-07-06T11:31:38.360Z,98931.94
2018-07-06T11:34:07.293Z,98930.04
2018-07-06T11:36:35.376Z,98930.75
2018-07-06T11:39:04.789Z,98930.92
2018-07-06T11:41:33.048Z,98931.44
2018-07-06T11:44:01.124Z,98935.92
2018-07-06T11:46:29.265Z,98931.98
2018-07-06T11:48:57.351Z,98932.27
2018-07-06T11:51:25.559Z,98933.00
2018-07-06T11:53:53.764Z,98927.88
2018-07-06T11:56:21.872Z,98922.64
2018-07-06T11:58:49.948Z,98925.34
2018-07-06T12:01:18.084Z,98916.64
2018-07-06T12:03:46.315Z,98924.89
2018-07-06T12:06:14.415Z,98917.02
2018-07-06T12:08:42.497Z,98916.22
2018-07-06T12:11:10.657Z,98920.17
2018-07-06T12:13:39.526Z,98921.77
2018-07-06T12:16:07.614Z,98922.14
2018-07-06T12:18:35.705Z,98930.12
2018-07-06T12:21:03.882Z,98924.60
2018-07-06T12:23:31.888Z,98920.77
2018-07-06T12:26:00.093Z,98932.74
2018-07-06T12:28:28.166Z,98933.16
2018-07-06T12:30:56.272Z,98933.19
2018-07-06T12:33:24.558Z,98926.64
2018-07-06T12:35:52.673Z,98927.23
2018-07-06T12:38:20.727Z,98924.53
2018-07-06T12:40:48.815Z,98924.81
2018-07-06T12:43:16.917Z,98919.50
2018-07-06T12:45:45.009Z,98922.22
2018-07-06T12:48:13.084Z,98918.89
2018-07-06T12:50:41.188Z,98923.67
2018-07-06T12:53:09.456Z,98920.50
2018-07-06T12:55:37.590Z,98920.13
2018-07-06T12:58:05.766Z,98919.87
2018-07-06T13:00:34.127Z,98913.86
2018-07-06T13:03:02.207Z,98908.44
2018-07-06T13:05:30.646Z,98904.83
2018-07-06T13:07:58.710Z,98906.17
2018-07-06T13:10:26.790Z,98910.41
2018-07-06T13:12:54.876Z,98907.65
2018-07-06T13:15:22.984Z,98910.80
2018-07-06T13:17:51.048Z,98911.48
2018-07-06T13:20:19.157Z,98918.63
2018-07-06T13:22:47.238Z,98919.09
2018-07-06T13:25:15.307Z,98914.77
2018-07-06T13:27:43.408Z,98915.99
2018-07-06T13:30:11.920Z,98911.20
2018-07-06T13:32:40.011Z,98913.24
2018-07-06T13:35:08.099Z,98910.78
2018-07-06T13:37:36.200Z,98909.56
2018-07-06T13:40:04.276Z,98918.09
2018-07-06T13:42:32.352Z,98915.73
2018-07-06T13:45:00.436Z,98920.80
2018-07-06T13:47:28.675Z,98926.91
2018-07-06T13:49:56.950Z,98918.34
2018-07-06T13:52:25.167Z,98917.08
2018-07-06T13:54:53.260Z,98913.56
2018-07-06T13:57:21.376Z,98910.25
2018-07-06T13:59:49.445Z,98911.30
2018-07-06T14:02:17.540Z,98907.16
2018-07-06T14:04:45.648Z,98914.94
2018-07-06T14:07:13.738Z,98904.86
2018-07-06T14:09:41.812Z,98908.01
2018-07-06T14:12:09.923Z,98905.00
2018-07-06T14:14:37.992Z,98914.05
2018-07-06T14:17:06.144Z,98920.59
2018-07-06T14:19:34.219Z,98915.39
2018-07-06T14:22:02.308Z,98918.43
2018-07-06T14:24:30.396Z,98915.16
2018-07-06T14:26:58.488Z,98910.28
2018-07-06T14:29:26.560Z,98917.41
2018-07-06T14:31:54.669Z,98910.54
2018-07-06T14:34:22.753Z,98917.48
2018-07-06T14:36:50.840Z,98914.88
2018-07-06T14:39:18.940Z,98916.85
2018-07-06T14:41:47.033Z,98909.62
2018-07-06T14:44:15.130Z,98905.77
2018-07-06T14:46:43.220Z,98907.49
2018-07-06T14:49:11.324Z,98906.37
2018-07-06T14:51:39.402Z,98903.16
2018-07-06T14:54:07.497Z,98900.67
2018-07-06T14:56:35.592Z,98889.27
2018-07-06T14:59:03.696Z,98886.92
2018-07-06T15:01:31.777Z,98893.28
2018-07-06T15:03:59.872Z,98900.00
2018-07-06T15:06:27.964Z,98903.39
2018-07-06T15:08:56.086Z,98905.07
2018-07-06T15:11:24.331Z,98901.59
2018-07-06T15:13:52.441Z,98901.63
2018-07-06T15:16:20.570Z,98897.09
2018-07-06T15:18:48.664Z,98894.82
2018-07-06T15:21:16.749Z,98909.55
2018-07-06T15:23:45.375Z,98913.86
2018-07-06T15:26:13.668Z,98925.98
2018-07-06T15:28:41.812Z,98938.88
2018-07-06T15:31:10.136Z,98932.45
2018-07-06T15:33:38.221Z,98927.54
2018-07-06T15:36:06.308Z,98923.31
2018-07-06T15:38:34.433Z,98936.27
2018-07-06T15:41:02.518Z,98926.61
2018-07-06T15:43:30.729Z,98940.48
2018-07-06T15:45:58.839Z,98934.77
2018-07-06T15:48:26.912Z,98938.62
2018-07-06T15:50:55.261Z,98931.92
2018-07-06T15:53:23.307Z,98931.61
2018-07-06T15:55:51.396Z,98935.00
2018-07-06T15:58:19.486Z,98929.27
2018-07-06T16:00:47.734Z,98924.29
2018-07-06T16:03:15.961Z,98920.44
2018-07-06T16:05:44.184Z,98924.17
2018-07-06T16:08:12.321Z,98920.05
2018-07-06T16:10:40.786Z,98920.56
2018-07-06T16:13:08.867Z,98914.22
2018-07-06T16:15:36.961Z,98935.11
2018-07-06T16:18:05.032Z,98938.09
2018-07-06T16:20:33.156Z,98939.66
2018-07-06T16:23:01.269Z,98935.84
2018-07-06T16:25:29.340Z,98942.41
2018-07-06T16:27:57.444Z,98940.48
2018-07-06T16:30:25.496Z,98935.30
2018-07-06T16:32:53.587Z,98943.48
2018-07-06T16:35:21.680Z,98945.73
2018-07-06T16:37:49.835Z,98947.67
2018-07-06T16:40:18.965Z,98955.96
2018-07-06T16:42:47.320Z,98955.98
2018-07-06T16:45:15.413Z,98958.37
2018-07-06T16:47:43.488Z,98962.19
2018-07-06T16:50:11.583Z,98960.89
2018-07-06T16:52:39.669Z,98959.85
2018-07-06T16:55:07.784Z,98964.41
2018-07-06T16:57:35.873Z,98974.67
2018-07-06T17:00:04.181Z,98970.91
2018-07-06T17:02:32.280Z,98975.11
2018-07-06T17:05:00.408Z,98976.86
2018-07-06T17:07:28.491Z,98976.20
2018-07-06T17:09:56.813Z,98968.00
2018-07-06T17:12:25.621Z,98971.67
2018-07-06T17:14:54.078Z,98975.42
2018-07-06T17:17:22.321Z,98971.16
2018-07-06T17:19:50.867Z,98973.34
2018-07-06T17:22:19.656Z,98973.16
2018-07-06T17:24:47.821Z,98974.73
2018-07-06T17:27:15.912Z,98977.43
2018-07-06T17:29:44.009Z,98973.13
2018-07-06T17:32:12.177Z,98981.26
2018-07-06T17:34:40.252Z,98983.39
2018-07-06T17:37:08.568Z,98978.02
2018-07-06T17:39:36.709Z,98979.83
2018-07-06T17:42:04.794Z,98981.02
2018-07-06T17:44:32.877Z,98984.39
2018-07-06T17:47:00.987Z,98985.21
2018-07-06T17:49:29.116Z,98985.13
2018-07-06T17:51:57.201Z,98987.06
2018-07-06T17:54:25.309Z,98981.68
2018-07-06T17:56:53.401Z,98990.22
2018-07-06T17:59:22.309Z,98999.02
2018-07-06T18:01:50.448Z,99012.67
2018-07-06T18:04:18.636Z,99025.83
2018-07-06T18:06:46.728Z,99036.65
2018-07-06T18:09:14.920Z,99026.28
2018-07-06T18:11:42.972Z,99021.65
2018-07-06T18:14:11.044Z,99040.74
2018-07-06T18:16:39.139Z,99028.05
2018-07-06T18:19:07.237Z,99062.11
2018-07-06T18:21:35.368Z,99057.46
2018-07-06T18:24:03.443Z,99028.91
2018-07-06T18:26:31.532Z,99033.11
2018-07-06T18:28:59.604Z,99034.27
2018-07-06T18:31:27.717Z,99026.65
2018-07-06T18:33:55.823Z,99024.73
2018-07-06T18:36:23.941Z,99021.16
2018-07-06T18:38:52.042Z,99024.95
2018-07-06T18:41:20.146Z,99024.80
2018-07-06T18:43:48.257Z,99020.10
2018-07-06T18:46:16.328Z,99019.33
2018-07-06T18:48:44.452Z,99024.98
2018-07-06T18:51:12.539Z,99027.37
2018-07-06T18:53:40.649Z,99035.35
2018-07-06T18:56:08.741Z,99032.22
2018-07-06T18:58:36.856Z,99036.98
2018-07-06T19:01:04.964Z,99034.24
2018-07-06T19:03:33.074Z,99044.28
2018-07-06T19:06:01.158Z,99042.01
2018-07-06T19:08:29.265Z,99051.80
2018-07-06T19:10:57.405Z,99052.83
2018-07-06T19:13:25.772Z,99058.94
2018-07-06T19:15:54.316Z,99064.42
2018-07-06T19:18:22.469Z,99066.64
2018-07-06T19:20:50.640Z,99069.03
2018-07-06T19:23:18.753Z,99078.87
2018-07-06T19:25:46.890Z,99079.92
2018-07-06T19:28:15.006Z,99091.94
2018-07-06T19:30:43.259Z,99093.77
2018-07-06T19:33:11.383Z,99102.16
2018-07-06T19:35:39.496Z,99104.23
2018-07-06T19:38:07.600Z,99109.91
2018-07-06T19:40:35.980Z,99114.23
2018-07-06T19:43:04.076Z,99128.25
2018-07-06T19:45:32.185Z,99124.76
2018-07-06T19:48:00.314Z,99135.73
2018-07-06T19:50:28.465Z,99133.40
2018-07-06T19:52:57.490Z,99135.27
2018-07-06T19:55:25.582Z,99146.59
2018-07-06T19:57:53.692Z,99147.09
2018-07-06T20:00:21.809Z,99143.45
2018-07-06T20:02:49.930Z,99152.61
2018-07-06T20:05:18.048Z,99157.11
2018-07-06T20:07:46.124Z,99154.98
2018-07-06T20:10:14.240Z,99153.02
2018-07-06T20:12:42.308Z,99162.34
2018-07-06T20:15:10.436Z,99167.02
2018-07-06T20:17:38.521Z,99165.03
2018-07-06T20:20:07.052Z,99169.54
2018-07-06T20:22:35.135Z,99167.84
2018-07-06T20:25:03.215Z,99173.65
2018-07-06T20:27:31.318Z,99178.28
2018-07-06T20:29:59.580Z,99182.61
2018-07-06T20:32:27.691Z,99188.94
2018-07-06T20:34:56.213Z,99188.75
2018-07-06T20:37:24.384Z,99193.39
2018-07-06T20:39:52.468Z,99193.39
2018-07-06T20:42:20.572Z,99196.23
2018-07-06T20:44:48.677Z,99195.55
2018-07-06T20:47:16.752Z,99188.01
2018-07-06T20:49:44.867Z,99202.00
2018-07-06T20:52:12.964Z,99197.47
2018-07-06T20:54:41.060Z,99198.30
2018-07-06T20:57:09.176Z,99197.78
2018-07-06T20:59:37.306Z,99201.95
2018-07-06T21:02:06.486Z,99201.27
2018-07-06T21:04:34.567Z,99205.38
2018-07-06T21:07:02.665Z,99205.08
2018-07-06T21:09:31.211Z,99207.55
2018-07-06T21:11:59.650Z,99205.73
2018-07-06T21:14:27.724Z,99208.53
2018-07-06T21:16:55.830Z,99215.70
2018-07-06T21:19:23.928Z,99221.02
2018-07-06T21:21:52.056Z,99221.70
2018-07-06T21:24:20.833Z,99223.02
2018-07-06T21:26:49.170Z,99220.55
2018-07-06T21:29:17.340Z,99224.85
2018-07-06T21:31:45.421Z,99225.16
2018-07-06T21:36:45.920Z,99227.89
2018-07-06T21:39:14.408Z,99228.92
2018-07-06T21:41:42.791Z,99224.47
2018-07-06T21:44:10.872Z,99228.84
2018-07-06T21:46:39.366Z,99237.70
2018-07-06T21:49:07.557Z,99237.18
2018-07-06T21:51:35.652Z,99230.66
2018-07-06T21:54:03.745Z,99235.91
2018-07-06T21:56:31.887Z,99237.16
2018-07-06T21:59:01.431Z,99238.17
2018-07-06T22:02:44.096Z,99237.59
2018-07-06T22:05:12.196Z,99235.22
2018-07-06T22:07:41.238Z,99238.89
2018-07-06T22:10:09.596Z,99236.96
2018-07-06T22:12:37.692Z,99235.59
2018-07-06T22:15:05.794Z,99244.05
2018-07-06T22:17:33.969Z,99245.58
2018-07-06T22:20:02.324Z,99242.08
2018-07-06T22:22:30.478Z,99244.81
2018-07-06T22:24:58.519Z,99245.61
2018-07-06T22:27:26.612Z,99250.24
2018-07-06T22:29:54.710Z,99247.18
2018-07-06T22:32:22.827Z,99251.85
2018-07-06T22:34:50.904Z,99252.81
2018-07-06T22:37:19.001Z,99254.45
2018-07-06T22:39:47.089Z,99253.56
2018-07-06T22:42:15.195Z,99247.72
2018-07-06T22:44:43.284Z,99258.58
2018-07-06T22:47:11.380Z,99262.45
2018-07-06T22:49:39.483Z,99256.09
2018-07-06T22:52:07.585Z,99258.86
2018-07-06T22:54:35.832Z,99257.20
2018-07-06T22:57:03.936Z,99260.86
2018-07-06T22:59:32.022Z,99261.83
2018-07-06T23:02:00.272Z,99265.12
2018-07-06T23:04:28.391Z,99256.05
2018-07-06T23:06:56.871Z,99252.86
2018-07-06T23:09:24.960Z,99259.06
2018-07-06T23:11:58.669Z,99257.58
2018-07-06T23:14:26.756Z,99255.23
2018-07-06T23:16:54.932Z,99256.13
2018-07-06T23:19:23.037Z,99253.75
2018-07-06T23:21:51.149Z,99259.69
2018-07-06T23:24:19.460Z,99256.30
2018-07-06T23:26:47.624Z,99256.94
2018-07-06T23:29:15.729Z,99258.72
2018-07-06T23:31:44.317Z,99260.94
2018-07-06T23:34:18.669Z,99264.91
2018-07-06T23:36:47.532Z,99265.13
2018-07-06T23:39:15.856Z,99263.78
2018-07-06T23:41:43.956Z,99260.58
2018-07-06T23:44:19.052Z,99265.00
2018-07-06T23:46:47.141Z,99266.58
2018-07-06T23:49:15.266Z,99267.72
2018-07-06T23:51:43.338Z,99272.36
2018-07-06T23:54:11.472Z,99266.97
2018-07-06T23:56:39.552Z,99275.63
2018-07-06T23:59:08.062Z,99270.02
